sensor_id;sensor_type;location;lat;lon;timestamp;P1;durP1;ratioP1;P2;durP2;ratioP2
10687;SDS011;5392;42.688;23.298;2023-06-14T00:01:15;4.10;;;3.80;;
10687;SDS011;5392;42.688;23.298;2023-06-14T00:03:43;3.65;;;3.55;;
10687;SDS011;5392;42.688;23.298;2023-06-14T00:06:10;4.00;;;3.72;;
10687;SDS011;5392;42.688;23.298;2023-06-14T00:08:37;3.58;;;3.47;;
10687;SDS011;5392;42.688;23.298;2023-06-14T00:11:04;3.83;;;3.58;;
10687;SDS011;5392;42.688;23.298;2023-06-14T00:13:31;3.53;;;3.33;;
10687;SDS011;5392;42.688;23.298;2023-06-14T00:15:58;4.32;;;4.00;;
10687;SDS011;5392;42.688;23.298;2023-06-14T00:18:24;4.68;;;4.15;;
10687;SDS011;5392;42.688;23.298;2023-06-14T00:20:55;5.80;;;4.05;;
10687;SDS011;5392;42.688;23.298;2023-06-14T00:23:22;5.93;;;3.80;;
10687;SDS011;5392;42.688;23.298;2023-06-14T00:25:49;5.68;;;4.13;;
10687;SDS011;5392;42.688;23.298;2023-06-14T00:28:16;4.18;;;3.97;;
10687;SDS011;5392;42.688;23.298;2023-06-14T00:30:42;3.80;;;3.70;;
10687;SDS011;5392;42.688;23.298;2023-06-14T00:33:12;4.05;;;3.85;;
10687;SDS011;5392;42.688;23.298;2023-06-14T00:35:39;3.78;;;3.60;;
10687;SDS011;5392;42.688;23.298;2023-06-14T00:38:06;4.32;;;3.95;;
10687;SDS011;5392;42.688;23.298;2023-06-14T00:40:33;3.85;;;3.63;;
10687;SDS011;5392;42.688;23.298;2023-06-14T00:43:01;3.63;;;3.50;;
10687;SDS011;5392;42.688;23.298;2023-06-14T00:45:27;3.70;;;3.50;;
10687;SDS011;5392;42.688;23.298;2023-06-14T00:47:54;4.00;;;3.83;;
10687;SDS011;5392;42.688;23.298;2023-06-14T00:50:22;4.20;;;3.85;;
10687;SDS011;5392;42.688;23.298;2023-06-14T00:52:50;4.30;;;4.05;;
10687;SDS011;5392;42.688;23.298;2023-06-14T00:55:17;3.50;;;3.28;;
10687;SDS011;5392;42.688;23.298;2023-06-14T00:57:44;3.58;;;3.28;;
10687;SDS011;5392;42.688;23.298;2023-06-14T01:00:12;3.17;;;3.05;;
10687;SDS011;5392;42.688;23.298;2023-06-14T01:02:39;3.20;;;3.00;;
10687;SDS011;5392;42.688;23.298;2023-06-14T01:05:07;3.65;;;3.30;;
10687;SDS011;5392;42.688;23.298;2023-06-14T01:12:56;2.83;;;2.72;;
10687;SDS011;5392;42.688;23.298;2023-06-14T01:15:30;3.55;;;3.35;;
10687;SDS011;5392;42.688;23.298;2023-06-14T01:17:57;3.08;;;2.83;;
10687;SDS011;5392;42.688;23.298;2023-06-14T01:20:30;2.40;;;2.35;;
10687;SDS011;5392;42.688;23.298;2023-06-14T01:22:58;3.10;;;2.80;;
10687;SDS011;5392;42.688;23.298;2023-06-14T01:25:26;3.08;;;2.90;;
10687;SDS011;5392;42.688;23.298;2023-06-14T01:27:55;3.67;;;3.35;;
10687;SDS011;5392;42.688;23.298;2023-06-14T01:30:24;3.45;;;3.25;;
10687;SDS011;5392;42.688;23.298;2023-06-14T01:32:53;5.40;;;3.72;;
10687;SDS011;5392;42.688;23.298;2023-06-14T01:35:22;6.88;;;3.35;;
10687;SDS011;5392;42.688;23.298;2023-06-14T01:37:49;4.10;;;3.20;;
10687;SDS011;5392;42.688;23.298;2023-06-14T01:40:18;3.47;;;3.17;;
10687;SDS011;5392;42.688;23.298;2023-06-14T01:42:47;3.90;;;3.70;;
10687;SDS011;5392;42.688;23.298;2023-06-14T01:45:16;3.20;;;3.00;;
10687;SDS011;5392;42.688;23.298;2023-06-14T01:47:45;2.97;;;2.85;;
10687;SDS011;5392;42.688;23.298;2023-06-14T01:50:13;3.63;;;3.33;;
10687;SDS011;5392;42.688;23.298;2023-06-14T01:52:40;3.75;;;3.55;;
10687;SDS011;5392;42.688;23.298;2023-06-14T01:55:07;3.65;;;3.55;;
10687;SDS011;5392;42.688;23.298;2023-06-14T01:57:35;3.58;;;3.47;;
10687;SDS011;5392;42.688;23.298;2023-06-14T02:00:03;3.42;;;3.08;;
10687;SDS011;5392;42.688;23.298;2023-06-14T02:02:34;3.92;;;3.72;;
10687;SDS011;5392;42.688;23.298;2023-06-14T02:05:01;6.20;;;4.00;;
10687;SDS011;5392;42.688;23.298;2023-06-14T02:07:28;3.92;;;3.72;;
10687;SDS011;5392;42.688;23.298;2023-06-14T02:09:54;4.30;;;4.00;;
10687;SDS011;5392;42.688;23.298;2023-06-14T02:12:21;4.63;;;4.40;;
10687;SDS011;5392;42.688;23.298;2023-06-14T02:14:48;4.80;;;4.50;;
10687;SDS011;5392;42.688;23.298;2023-06-14T02:17:15;4.80;;;4.60;;
10687;SDS011;5392;42.688;23.298;2023-06-14T02:19:42;4.55;;;4.45;;
10687;SDS011;5392;42.688;23.298;2023-06-14T02:22:09;4.68;;;4.47;;
10687;SDS011;5392;42.688;23.298;2023-06-14T02:24:35;5.40;;;5.00;;
10687;SDS011;5392;42.688;23.298;2023-06-14T02:27:02;4.88;;;4.47;;
10687;SDS011;5392;42.688;23.298;2023-06-14T02:29:30;6.20;;;4.93;;
10687;SDS011;5392;42.688;23.298;2023-06-14T02:31:56;6.07;;;5.68;;
10687;SDS011;5392;42.688;23.298;2023-06-14T02:34:23;5.63;;;5.22;;
10687;SDS011;5392;42.688;23.298;2023-06-14T02:36:50;9.25;;;5.53;;
10687;SDS011;5392;42.688;23.298;2023-06-14T02:39:18;5.22;;;4.93;;
10687;SDS011;5392;42.688;23.298;2023-06-14T02:41:47;5.75;;;5.35;;
10687;SDS011;5392;42.688;23.298;2023-06-14T02:44:13;4.57;;;4.47;;
10687;SDS011;5392;42.688;23.298;2023-06-14T02:46:41;5.57;;;5.15;;
10687;SDS011;5392;42.688;23.298;2023-06-14T02:49:10;4.82;;;4.53;;
10687;SDS011;5392;42.688;23.298;2023-06-14T02:51:37;5.25;;;4.72;;
10687;SDS011;5392;42.688;23.298;2023-06-14T02:54:04;4.88;;;4.68;;
10687;SDS011;5392;42.688;23.298;2023-06-14T02:56:31;5.50;;;5.30;;
10687;SDS011;5392;42.688;23.298;2023-06-14T02:58:57;6.50;;;5.85;;
10687;SDS011;5392;42.688;23.298;2023-06-14T03:01:25;7.13;;;6.07;;
10687;SDS011;5392;42.688;23.298;2023-06-14T03:04:01;5.07;;;4.85;;
10687;SDS011;5392;42.688;23.298;2023-06-14T03:06:29;6.43;;;4.97;;
10687;SDS011;5392;42.688;23.298;2023-06-14T03:08:57;5.60;;;5.20;;
10687;SDS011;5392;42.688;23.298;2023-06-14T03:11:35;5.00;;;4.60;;
10687;SDS011;5392;42.688;23.298;2023-06-14T03:14:02;5.28;;;4.88;;
10687;SDS011;5392;42.688;23.298;2023-06-14T03:16:34;8.52;;;6.63;;
10687;SDS011;5392;42.688;23.298;2023-06-14T03:19:01;4.80;;;4.50;;
10687;SDS011;5392;42.688;23.298;2023-06-14T03:21:28;5.70;;;5.13;;
10687;SDS011;5392;42.688;23.298;2023-06-14T03:23:55;4.43;;;3.97;;
10687;SDS011;5392;42.688;23.298;2023-06-14T03:26:21;4.57;;;3.38;;
10687;SDS011;5392;42.688;23.298;2023-06-14T03:28:48;4.55;;;3.40;;
10687;SDS011;5392;42.688;23.298;2023-06-14T03:31:16;3.97;;;3.35;;
10687;SDS011;5392;42.688;23.298;2023-06-14T03:33:43;3.97;;;3.53;;
10687;SDS011;5392;42.688;23.298;2023-06-14T03:36:10;6.32;;;3.40;;
10687;SDS011;5392;42.688;23.298;2023-06-14T03:38:37;3.40;;;3.30;;
10687;SDS011;5392;42.688;23.298;2023-06-14T03:41:03;4.40;;;4.10;;
10687;SDS011;5392;42.688;23.298;2023-06-14T03:43:30;3.60;;;3.40;;
10687;SDS011;5392;42.688;23.298;2023-06-14T03:45:57;13.00;;;4.32;;
10687;SDS011;5392;42.688;23.298;2023-06-14T03:48:24;5.70;;;4.20;;
10687;SDS011;5392;42.688;23.298;2023-06-14T03:50:51;3.85;;;3.55;;
10687;SDS011;5392;42.688;23.298;2023-06-14T03:53:18;5.05;;;4.07;;
10687;SDS011;5392;42.688;23.298;2023-06-14T03:55:46;4.03;;;3.70;;
10687;SDS011;5392;42.688;23.298;2023-06-14T03:58:18;3.55;;;3.45;;
10687;SDS011;5392;42.688;23.298;2023-06-14T04:00:45;5.30;;;3.80;;
10687;SDS011;5392;42.688;23.298;2023-06-14T04:03:11;8.55;;;3.92;;
10687;SDS011;5392;42.688;23.298;2023-06-14T04:05:39;4.43;;;4.00;;
10687;SDS011;5392;42.688;23.298;2023-06-14T04:08:10;4.65;;;4.25;;
10687;SDS011;5392;42.688;23.298;2023-06-14T04:10:41;12.98;;;5.05;;
10687;SDS011;5392;42.688;23.298;2023-06-14T04:13:07;10.30;;;4.35;;
10687;SDS011;5392;42.688;23.298;2023-06-14T04:15:38;11.60;;;5.15;;
10687;SDS011;5392;42.688;23.298;2023-06-14T04:18:08;8.07;;;4.70;;
10687;SDS011;5392;42.688;23.298;2023-06-14T04:20:35;7.07;;;4.30;;
10687;SDS011;5392;42.688;23.298;2023-06-14T04:23:14;6.70;;;5.25;;
10687;SDS011;5392;42.688;23.298;2023-06-14T04:25:44;5.55;;;3.80;;
10687;SDS011;5392;42.688;23.298;2023-06-14T04:28:15;9.63;;;4.90;;
10687;SDS011;5392;42.688;23.298;2023-06-14T04:30:43;10.48;;;5.43;;
10687;SDS011;5392;42.688;23.298;2023-06-14T04:33:11;3.60;;;3.33;;
10687;SDS011;5392;42.688;23.298;2023-06-14T04:35:37;9.60;;;3.55;;
10687;SDS011;5392;42.688;23.298;2023-06-14T04:38:05;10.00;;;3.60;;
10687;SDS011;5392;42.688;23.298;2023-06-14T04:40:35;7.97;;;4.43;;
10687;SDS011;5392;42.688;23.298;2023-06-14T04:43:09;11.10;;;4.05;;
10687;SDS011;5392;42.688;23.298;2023-06-14T04:45:38;3.20;;;2.92;;
10687;SDS011;5392;42.688;23.298;2023-06-14T04:48:06;2.63;;;2.10;;
10687;SDS011;5392;42.688;23.298;2023-06-14T04:50:33;12.63;;;4.00;;
10687;SDS011;5392;42.688;23.298;2023-06-14T04:53:01;11.90;;;2.88;;
10687;SDS011;5392;42.688;23.298;2023-06-14T04:55:29;4.53;;;2.67;;
10687;SDS011;5392;42.688;23.298;2023-06-14T04:57:56;12.80;;;4.40;;
10687;SDS011;5392;42.688;23.298;2023-06-14T05:00:23;6.22;;;3.53;;
10687;SDS011;5392;42.688;23.298;2023-06-14T05:02:49;3.28;;;2.88;;
10687;SDS011;5392;42.688;23.298;2023-06-14T05:05:17;5.07;;;4.05;;
10687;SDS011;5392;42.688;23.298;2023-06-14T05:07:44;7.93;;;3.83;;
10687;SDS011;5392;42.688;23.298;2023-06-14T05:10:11;3.42;;;3.13;;
10687;SDS011;5392;42.688;23.298;2023-06-14T05:12:38;3.95;;;3.75;;
10687;SDS011;5392;42.688;23.298;2023-06-14T05:15:05;3.92;;;3.72;;
10687;SDS011;5392;42.688;23.298;2023-06-14T05:17:32;5.13;;;4.28;;
10687;SDS011;5392;42.688;23.298;2023-06-14T05:19:59;5.40;;;4.97;;
10687;SDS011;5392;42.688;23.298;2023-06-14T05:22:25;5.05;;;4.72;;
10687;SDS011;5392;42.688;23.298;2023-06-14T05:24:52;7.93;;;6.18;;
10687;SDS011;5392;42.688;23.298;2023-06-14T05:27:19;8.93;;;4.78;;
10687;SDS011;5392;42.688;23.298;2023-06-14T05:29:45;10.30;;;5.38;;
10687;SDS011;5392;42.688;23.298;2023-06-14T05:32:12;11.27;;;6.50;;
10687;SDS011;5392;42.688;23.298;2023-06-14T05:34:39;11.40;;;6.57;;
10687;SDS011;5392;42.688;23.298;2023-06-14T05:37:06;10.18;;;6.00;;
10687;SDS011;5392;42.688;23.298;2023-06-14T05:39:33;6.72;;;6.18;;
10687;SDS011;5392;42.688;23.298;2023-06-14T05:42:00;10.05;;;7.18;;
10687;SDS011;5392;42.688;23.298;2023-06-14T05:44:26;6.05;;;5.55;;
10687;SDS011;5392;42.688;23.298;2023-06-14T05:46:53;13.45;;;5.72;;
10687;SDS011;5392;42.688;23.298;2023-06-14T05:49:20;6.65;;;5.45;;
10687;SDS011;5392;42.688;23.298;2023-06-14T05:51:47;6.25;;;5.82;;
10687;SDS011;5392;42.688;23.298;2023-06-14T05:54:14;7.05;;;6.35;;
10687;SDS011;5392;42.688;23.298;2023-06-14T05:56:40;6.85;;;6.45;;
10687;SDS011;5392;42.688;23.298;2023-06-14T05:59:07;8.95;;;7.88;;
10687;SDS011;5392;42.688;23.298;2023-06-14T06:01:34;12.63;;;7.80;;
10687;SDS011;5392;42.688;23.298;2023-06-14T06:04:05;17.13;;;7.18;;
10687;SDS011;5392;42.688;23.298;2023-06-14T06:06:32;7.55;;;7.05;;
10687;SDS011;5392;42.688;23.298;2023-06-14T06:08:59;8.02;;;7.38;;
10687;SDS011;5392;42.688;23.298;2023-06-14T06:11:26;16.65;;;9.90;;
10687;SDS011;5392;42.688;23.298;2023-06-14T06:14:06;9.18;;;8.35;;
10687;SDS011;5392;42.688;23.298;2023-06-14T06:16:32;14.15;;;8.57;;
10687;SDS011;5392;42.688;23.298;2023-06-14T06:18:59;9.93;;;8.80;;
10687;SDS011;5392;42.688;23.298;2023-06-14T06:21:26;8.98;;;8.18;;
10687;SDS011;5392;42.688;23.298;2023-06-14T06:23:53;10.80;;;8.23;;
10687;SDS011;5392;42.688;23.298;2023-06-14T06:26:21;10.68;;;8.77;;
10687;SDS011;5392;42.688;23.298;2023-06-14T06:28:48;8.55;;;7.80;;
10687;SDS011;5392;42.688;23.298;2023-06-14T06:31:15;12.45;;;9.02;;
10687;SDS011;5392;42.688;23.298;2023-06-14T06:33:42;9.88;;;8.93;;
10687;SDS011;5392;42.688;23.298;2023-06-14T06:36:08;8.40;;;7.70;;
10687;SDS011;5392;42.688;23.298;2023-06-14T06:38:38;8.55;;;7.85;;
10687;SDS011;5392;42.688;23.298;2023-06-14T06:41:04;9.60;;;8.68;;
10687;SDS011;5392;42.688;23.298;2023-06-14T06:43:31;18.60;;;10.90;;
10687;SDS011;5392;42.688;23.298;2023-06-14T06:45:58;15.07;;;10.23;;
10687;SDS011;5392;42.688;23.298;2023-06-14T06:48:25;10.48;;;9.02;;
10687;SDS011;5392;42.688;23.298;2023-06-14T06:50:52;21.67;;;10.10;;
10687;SDS011;5392;42.688;23.298;2023-06-14T06:53:19;12.32;;;9.27;;
10687;SDS011;5392;42.688;23.298;2023-06-14T06:56:00;9.95;;;9.18;;
10687;SDS011;5392;42.688;23.298;2023-06-14T06:58:27;10.10;;;9.20;;
10687;SDS011;5392;42.688;23.298;2023-06-14T07:00:53;13.52;;;10.00;;
10687;SDS011;5392;42.688;23.298;2023-06-14T07:03:20;15.95;;;9.75;;
10687;SDS011;5392;42.688;23.298;2023-06-14T07:05:47;9.90;;;8.90;;
10687;SDS011;5392;42.688;23.298;2023-06-14T07:08:14;18.88;;;9.20;;
10687;SDS011;5392;42.688;23.298;2023-06-14T07:10:41;10.63;;;8.88;;
10687;SDS011;5392;42.688;23.298;2023-06-14T07:13:07;13.85;;;9.27;;
10687;SDS011;5392;42.688;23.298;2023-06-14T07:15:35;9.65;;;8.68;;
10687;SDS011;5392;42.688;23.298;2023-06-14T07:18:02;10.13;;;8.98;;
10687;SDS011;5392;42.688;23.298;2023-06-14T07:20:29;10.43;;;9.50;;
10687;SDS011;5392;42.688;23.298;2023-06-14T07:22:57;13.65;;;9.57;;
10687;SDS011;5392;42.688;23.298;2023-06-14T07:25:23;11.18;;;8.73;;
10687;SDS011;5392;42.688;23.298;2023-06-14T07:27:51;14.35;;;10.40;;
10687;SDS011;5392;42.688;23.298;2023-06-14T07:30:18;10.70;;;9.70;;
10687;SDS011;5392;42.688;23.298;2023-06-14T07:32:45;11.98;;;10.88;;
10687;SDS011;5392;42.688;23.298;2023-06-14T07:35:12;13.35;;;11.98;;
10687;SDS011;5392;42.688;23.298;2023-06-14T07:37:39;12.23;;;11.02;;
10687;SDS011;5392;42.688;23.298;2023-06-14T07:40:06;13.23;;;11.88;;
10687;SDS011;5392;42.688;23.298;2023-06-14T07:42:34;11.90;;;10.77;;
10687;SDS011;5392;42.688;23.298;2023-06-14T07:45:04;13.10;;;11.60;;
10687;SDS011;5392;42.688;23.298;2023-06-14T07:47:32;11.82;;;10.70;;
10687;SDS011;5392;42.688;23.298;2023-06-14T07:49:59;11.85;;;10.70;;
10687;SDS011;5392;42.688;23.298;2023-06-14T07:52:26;11.50;;;10.60;;
10687;SDS011;5392;42.688;23.298;2023-06-14T07:54:53;11.88;;;10.75;;
10687;SDS011;5392;42.688;23.298;2023-06-14T07:57:20;10.70;;;9.68;;
10687;SDS011;5392;42.688;23.298;2023-06-14T07:59:47;10.80;;;9.88;;
10687;SDS011;5392;42.688;23.298;2023-06-14T08:02:14;12.85;;;10.45;;
10687;SDS011;5392;42.688;23.298;2023-06-14T08:04:41;11.57;;;10.38;;
10687;SDS011;5392;42.688;23.298;2023-06-14T08:07:08;9.48;;;8.75;;
10687;SDS011;5392;42.688;23.298;2023-06-14T08:09:35;10.52;;;9.10;;
10687;SDS011;5392;42.688;23.298;2023-06-14T08:12:07;9.65;;;8.77;;
10687;SDS011;5392;42.688;23.298;2023-06-14T08:14:36;10.18;;;9.20;;
10687;SDS011;5392;42.688;23.298;2023-06-14T08:17:03;9.98;;;9.07;;
10687;SDS011;5392;42.688;23.298;2023-06-14T08:19:30;9.35;;;8.60;;
10687;SDS011;5392;42.688;23.298;2023-06-14T08:21:57;10.75;;;9.82;;
10687;SDS011;5392;42.688;23.298;2023-06-14T08:24:24;9.20;;;8.35;;
10687;SDS011;5392;42.688;23.298;2023-06-14T08:26:51;8.48;;;7.85;;
10687;SDS011;5392;42.688;23.298;2023-06-14T08:29:18;8.82;;;8.18;;
10687;SDS011;5392;42.688;23.298;2023-06-14T08:31:45;9.77;;;8.95;;
10687;SDS011;5392;42.688;23.298;2023-06-14T08:34:11;9.32;;;8.48;;
10687;SDS011;5392;42.688;23.298;2023-06-14T08:36:38;8.68;;;8.07;;
10687;SDS011;5392;42.688;23.298;2023-06-14T08:39:05;8.30;;;7.80;;
10687;SDS011;5392;42.688;23.298;2023-06-14T08:41:32;7.55;;;6.80;;
10687;SDS011;5392;42.688;23.298;2023-06-14T08:43:59;8.27;;;7.63;;
10687;SDS011;5392;42.688;23.298;2023-06-14T08:46:26;8.13;;;7.43;;
10687;SDS011;5392;42.688;23.298;2023-06-14T08:48:55;8.40;;;7.90;;
10687;SDS011;5392;42.688;23.298;2023-06-14T08:51:25;8.40;;;7.57;;
10687;SDS011;5392;42.688;23.298;2023-06-14T08:53:54;9.45;;;8.57;;
10687;SDS011;5392;42.688;23.298;2023-06-14T08:56:25;7.85;;;7.40;;
10687;SDS011;5392;42.688;23.298;2023-06-14T08:58:58;7.78;;;7.30;;
10687;SDS011;5392;42.688;23.298;2023-06-14T09:01:36;8.07;;;7.32;;
10687;SDS011;5392;42.688;23.298;2023-06-14T09:04:03;8.45;;;7.75;;
10687;SDS011;5392;42.688;23.298;2023-06-14T09:06:31;8.07;;;7.30;;
10687;SDS011;5392;42.688;23.298;2023-06-14T09:08:59;7.07;;;6.78;;
10687;SDS011;5392;42.688;23.298;2023-06-14T09:11:26;7.63;;;6.93;;
10687;SDS011;5392;42.688;23.298;2023-06-14T09:13:53;6.65;;;6.25;;
10687;SDS011;5392;42.688;23.298;2023-06-14T09:16:19;7.82;;;7.30;;
10687;SDS011;5392;42.688;23.298;2023-06-14T09:18:47;6.45;;;6.07;;
10687;SDS011;5392;42.688;23.298;2023-06-14T09:21:15;6.18;;;5.53;;
10687;SDS011;5392;42.688;23.298;2023-06-14T09:23:43;5.95;;;5.40;;
10687;SDS011;5392;42.688;23.298;2023-06-14T09:26:15;6.95;;;6.55;;
10687;SDS011;5392;42.688;23.298;2023-06-14T09:28:47;6.57;;;6.07;;
10687;SDS011;5392;42.688;23.298;2023-06-14T09:31:15;7.10;;;6.40;;
10687;SDS011;5392;42.688;23.298;2023-06-14T09:33:44;7.40;;;6.90;;
10687;SDS011;5392;42.688;23.298;2023-06-14T09:36:18;6.78;;;6.18;;
10687;SDS011;5392;42.688;23.298;2023-06-14T09:38:55;6.78;;;6.15;;
10687;SDS011;5392;42.688;23.298;2023-06-14T09:41:39;9.20;;;8.57;;
10687;SDS011;5392;42.688;23.298;2023-06-14T09:44:07;8.57;;;7.53;;
10687;SDS011;5392;42.688;23.298;2023-06-14T09:46:43;7.90;;;7.45;;
10687;SDS011;5392;42.688;23.298;2023-06-14T09:49:10;7.75;;;7.22;;
10687;SDS011;5392;42.688;23.298;2023-06-14T09:51:48;8.02;;;7.45;;
10687;SDS011;5392;42.688;23.298;2023-06-14T09:54:20;7.75;;;7.25;;
10687;SDS011;5392;42.688;23.298;2023-06-14T09:56:49;9.88;;;7.22;;
10687;SDS011;5392;42.688;23.298;2023-06-14T09:59:21;7.45;;;6.90;;
10687;SDS011;5392;42.688;23.298;2023-06-14T10:01:57;8.15;;;7.53;;
10687;SDS011;5392;42.688;23.298;2023-06-14T10:04:26;7.93;;;7.30;;
10687;SDS011;5392;42.688;23.298;2023-06-14T10:06:56;8.30;;;7.80;;
10687;SDS011;5392;42.688;23.298;2023-06-14T10:09:24;9.10;;;8.38;;
10687;SDS011;5392;42.688;23.298;2023-06-14T10:11:52;9.65;;;9.00;;
10687;SDS011;5392;42.688;23.298;2023-06-14T10:14:18;10.05;;;9.15;;
10687;SDS011;5392;42.688;23.298;2023-06-14T10:16:52;11.25;;;10.38;;
10687;SDS011;5392;42.688;23.298;2023-06-14T10:22:51;9.50;;;8.88;;
10687;SDS011;5392;42.688;23.298;2023-06-14T10:25:28;9.93;;;9.15;;
10687;SDS011;5392;42.688;23.298;2023-06-14T10:28:05;9.50;;;8.70;;
10687;SDS011;5392;42.688;23.298;2023-06-14T10:30:40;9.00;;;8.20;;
10687;SDS011;5392;42.688;23.298;2023-06-14T10:34:20;9.57;;;8.93;;
10687;SDS011;5392;42.688;23.298;2023-06-14T10:41:34;8.57;;;8.00;;
10687;SDS011;5392;42.688;23.298;2023-06-14T10:44:48;8.93;;;8.32;;
10687;SDS011;5392;42.688;23.298;2023-06-14T10:46:49;13.30;;;9.02;;
10687;SDS011;5392;42.688;23.298;2023-06-14T10:49:20;7.90;;;7.25;;
10687;SDS011;5392;42.688;23.298;2023-06-14T10:52:09;9.15;;;8.55;;
10687;SDS011;5392;42.688;23.298;2023-06-14T10:57:30;8.82;;;8.15;;
10687;SDS011;5392;42.688;23.298;2023-06-14T11:00:14;7.85;;;7.35;;
10687;SDS011;5392;42.688;23.298;2023-06-14T11:05:50;8.15;;;7.50;;
10687;SDS011;5392;42.688;23.298;2023-06-14T11:11:07;10.57;;;9.50;;
10687;SDS011;5392;42.688;23.298;2023-06-14T11:13:37;9.00;;;8.30;;
10687;SDS011;5392;42.688;23.298;2023-06-14T11:16:12;8.77;;;8.38;;
10687;SDS011;5392;42.688;23.298;2023-06-14T11:18:40;8.68;;;8.07;;
10687;SDS011;5392;42.688;23.298;2023-06-14T11:21:08;8.77;;;8.23;;
10687;SDS011;5392;42.688;23.298;2023-06-14T11:23:35;8.90;;;8.00;;
10687;SDS011;5392;42.688;23.298;2023-06-14T11:26:03;8.70;;;7.82;;
10687;SDS011;5392;42.688;23.298;2023-06-14T11:28:37;9.73;;;8.93;;
10687;SDS011;5392;42.688;23.298;2023-06-14T11:31:07;7.20;;;6.82;;
10687;SDS011;5392;42.688;23.298;2023-06-14T11:33:34;7.22;;;6.45;;
10687;SDS011;5392;42.688;23.298;2023-06-14T11:36:01;6.78;;;6.35;;
10687;SDS011;5392;42.688;23.298;2023-06-14T11:38:30;6.32;;;6.03;;
10687;SDS011;5392;42.688;23.298;2023-06-14T11:41:01;6.28;;;5.97;;
10687;SDS011;5392;42.688;23.298;2023-06-14T11:43:28;7.47;;;7.03;;
10687;SDS011;5392;42.688;23.298;2023-06-14T11:45:58;6.00;;;5.68;;
10687;SDS011;5392;42.688;23.298;2023-06-14T11:48:40;6.20;;;5.90;;
10687;SDS011;5392;42.688;23.298;2023-06-14T11:51:08;7.28;;;6.82;;
10687;SDS011;5392;42.688;23.298;2023-06-14T11:53:35;7.07;;;6.43;;
10687;SDS011;5392;42.688;23.298;2023-06-14T11:56:02;6.40;;;6.00;;
10687;SDS011;5392;42.688;23.298;2023-06-14T11:58:29;6.43;;;5.95;;
10687;SDS011;5392;42.688;23.298;2023-06-14T12:00:56;5.95;;;5.38;;
10687;SDS011;5392;42.688;23.298;2023-06-14T12:03:24;5.45;;;5.07;;
10687;SDS011;5392;42.688;23.298;2023-06-14T12:06:06;5.65;;;5.30;;
10687;SDS011;5392;42.688;23.298;2023-06-14T12:08:35;4.90;;;4.80;;
10687;SDS011;5392;42.688;23.298;2023-06-14T12:11:10;5.38;;;4.97;;
10687;SDS011;5392;42.688;23.298;2023-06-14T12:13:38;5.78;;;5.25;;
10687;SDS011;5392;42.688;23.298;2023-06-14T12:16:07;5.57;;;5.22;;
10687;SDS011;5392;42.688;23.298;2023-06-14T12:18:38;5.07;;;4.70;;
10687;SDS011;5392;42.688;23.298;2023-06-14T12:21:07;5.32;;;4.93;;
10687;SDS011;5392;42.688;23.298;2023-06-14T12:26:17;4.95;;;4.65;;
10687;SDS011;5392;42.688;23.298;2023-06-14T12:28:46;7.68;;;4.45;;
10687;SDS011;5392;42.688;23.298;2023-06-14T12:31:14;4.30;;;4.13;;
10687;SDS011;5392;42.688;23.298;2023-06-14T12:33:42;4.93;;;4.50;;
10687;SDS011;5392;42.688;23.298;2023-06-14T12:36:10;3.97;;;3.85;;
10687;SDS011;5392;42.688;23.298;2023-06-14T12:38:37;3.67;;;3.47;;
10687;SDS011;5392;42.688;23.298;2023-06-14T12:41:04;3.75;;;3.65;;
10687;SDS011;5392;42.688;23.298;2023-06-14T12:43:31;3.58;;;3.38;;
10687;SDS011;5392;42.688;23.298;2023-06-14T12:45:58;4.43;;;3.85;;
10687;SDS011;5392;42.688;23.298;2023-06-14T12:48:26;3.58;;;3.38;;
10687;SDS011;5392;42.688;23.298;2023-06-14T12:50:53;3.47;;;3.17;;
10687;SDS011;5392;42.688;23.298;2023-06-14T12:53:20;3.33;;;3.10;;
10687;SDS011;5392;42.688;23.298;2023-06-14T12:55:47;3.78;;;3.58;;
10687;SDS011;5392;42.688;23.298;2023-06-14T12:58:14;3.08;;;2.88;;
10687;SDS011;5392;42.688;23.298;2023-06-14T13:00:41;3.70;;;3.47;;
10687;SDS011;5392;42.688;23.298;2023-06-14T13:03:07;4.55;;;3.38;;
10687;SDS011;5392;42.688;23.298;2023-06-14T13:05:34;3.13;;;3.03;;
10687;SDS011;5392;42.688;23.298;2023-06-14T13:08:01;5.82;;;2.88;;
10687;SDS011;5392;42.688;23.298;2023-06-14T13:10:28;3.72;;;3.42;;
10687;SDS011;5392;42.688;23.298;2023-06-14T13:12:55;3.58;;;3.47;;
10687;SDS011;5392;42.688;23.298;2023-06-14T13:15:24;3.65;;;3.35;;
10687;SDS011;5392;42.688;23.298;2023-06-14T13:17:51;4.18;;;3.97;;
10687;SDS011;5392;42.688;23.298;2023-06-14T13:20:18;4.90;;;4.50;;
10687;SDS011;5392;42.688;23.298;2023-06-14T13:22:46;3.88;;;3.58;;
10687;SDS011;5392;42.688;23.298;2023-06-14T13:25:13;3.50;;;3.30;;
10687;SDS011;5392;42.688;23.298;2023-06-14T13:27:40;4.10;;;3.78;;
10687;SDS011;5392;42.688;23.298;2023-06-14T13:30:06;3.30;;;3.20;;
10687;SDS011;5392;42.688;23.298;2023-06-14T13:32:33;4.65;;;4.20;;
10687;SDS011;5392;42.688;23.298;2023-06-14T13:35:00;3.10;;;3.10;;
10687;SDS011;5392;42.688;23.298;2023-06-14T13:37:27;2.83;;;2.72;;
10687;SDS011;5392;42.688;23.298;2023-06-14T13:39:54;2.90;;;2.90;;
10687;SDS011;5392;42.688;23.298;2023-06-14T13:42:21;3.65;;;3.55;;
10687;SDS011;5392;42.688;23.298;2023-06-14T13:44:48;5.00;;;4.60;;
10687;SDS011;5392;42.688;23.298;2023-06-14T13:47:15;4.00;;;3.83;;
10687;SDS011;5392;42.688;23.298;2023-06-14T13:49:42;5.18;;;4.88;;
10687;SDS011;5392;42.688;23.298;2023-06-14T13:52:08;5.03;;;4.82;;
10687;SDS011;5392;42.688;23.298;2023-06-14T13:54:35;5.60;;;5.25;;
10687;SDS011;5392;42.688;23.298;2023-06-14T13:57:02;4.78;;;4.53;;
10687;SDS011;5392;42.688;23.298;2023-06-14T13:59:29;5.53;;;5.15;;
10687;SDS011;5392;42.688;23.298;2023-06-14T14:01:57;5.40;;;5.10;;
10687;SDS011;5392;42.688;23.298;2023-06-14T14:04:24;5.85;;;5.30;;
10687;SDS011;5392;42.688;23.298;2023-06-14T14:06:51;5.03;;;4.57;;
10687;SDS011;5392;42.688;23.298;2023-06-14T14:09:17;4.85;;;4.65;;
10687;SDS011;5392;42.688;23.298;2023-06-14T14:11:44;5.55;;;5.15;;
10687;SDS011;5392;42.688;23.298;2023-06-14T14:14:11;5.15;;;4.75;;
10687;SDS011;5392;42.688;23.298;2023-06-14T14:16:38;5.95;;;5.40;;
10687;SDS011;5392;42.688;23.298;2023-06-14T14:19:05;5.47;;;5.07;;
10687;SDS011;5392;42.688;23.298;2023-06-14T14:21:33;4.38;;;4.07;;
10687;SDS011;5392;42.688;23.298;2023-06-14T14:23:59;5.32;;;5.03;;
10687;SDS011;5392;42.688;23.298;2023-06-14T14:26:26;4.10;;;3.90;;
10687;SDS011;5392;42.688;23.298;2023-06-14T14:28:53;4.28;;;4.10;;
10687;SDS011;5392;42.688;23.298;2023-06-14T14:31:20;4.32;;;4.13;;
10687;SDS011;5392;42.688;23.298;2023-06-14T14:33:47;4.43;;;4.18;;
10687;SDS011;5392;42.688;23.298;2023-06-14T14:36:13;3.30;;;3.05;;
10687;SDS011;5392;42.688;23.298;2023-06-14T14:38:40;3.92;;;3.50;;
10687;SDS011;5392;42.688;23.298;2023-06-14T14:41:07;3.35;;;2.88;;
10687;SDS011;5392;42.688;23.298;2023-06-14T14:43:34;3.40;;;3.13;;
10687;SDS011;5392;42.688;23.298;2023-06-14T14:46:00;3.10;;;2.97;;
10687;SDS011;5392;42.688;23.298;2023-06-14T14:48:27;3.38;;;3.13;;
10687;SDS011;5392;42.688;23.298;2023-06-14T14:50:54;3.83;;;3.63;;
10687;SDS011;5392;42.688;23.298;2023-06-14T14:53:21;4.32;;;4.13;;
10687;SDS011;5392;42.688;23.298;2023-06-14T14:55:48;5.60;;;5.30;;
10687;SDS011;5392;42.688;23.298;2023-06-14T14:58:15;5.70;;;5.18;;
10687;SDS011;5392;42.688;23.298;2023-06-14T15:00:44;4.88;;;4.70;;
10687;SDS011;5392;42.688;23.298;2023-06-14T15:03:12;3.15;;;3.05;;
10687;SDS011;5392;42.688;23.298;2023-06-14T15:05:40;2.17;;;2.08;;
10687;SDS011;5392;42.688;23.298;2023-06-14T15:08:07;2.80;;;2.60;;
10687;SDS011;5392;42.688;23.298;2023-06-14T15:10:38;3.80;;;3.50;;
10687;SDS011;5392;42.688;23.298;2023-06-14T15:13:08;4.03;;;3.92;;
10687;SDS011;5392;42.688;23.298;2023-06-14T15:15:35;5.05;;;4.75;;
10687;SDS011;5392;42.688;23.298;2023-06-14T15:18:02;5.47;;;5.10;;